Time;durP1;ratioP1;P1;durP2;ratioP2;P2;SDS_P1;SDS_P2;PMS_P1;PMS_P2;Temp;Humidity;BMP_temperature;BMP_pressure;BME280_temperature;BME280_humidity;BME280_pressure;Samples;Min_cycle;Max_cycle;Signal;HPM_P1;HPM_P2
2022/11/29 00:01:40;;;;;;;45.90;23.83;;;5.60;99.90;;;;;;5113520;28;20564;-67
2022/11/29 00:04:10;;;;;;;51.90;26.27;;;5.60;99.90;;;;;;5113398;28;20206;-67
2022/11/29 00:06:38;;;;;;;50.00;26.73;;;5.60;99.90;;;;;;5112929;28;20235;-70
2022/11/29 00:09:10;;;;;;;58.77;27.10;;;5.60;99.90;;;;;;5113217;28;20194;-69
2022/11/29 00:14:27;;;;;;;46.87;24.13;;;5.60;99.90;;;;;;5113087;28;20231;-71
2022/11/29 00:17:00;;;;;;;51.20;24.77;;;5.50;99.90;;;;;;5113038;28;20210;-69
2022/11/29 00:19:29;;;;;;;51.70;24.93;;;5.50;99.90;;;;;;5112991;28;20205;-69
2022/11/29 00:21:58;;;;;;;47.77;23.63;;;5.40;99.90;;;;;;5094346;28;20207;-69
2022/11/29 00:24:26;;;;;;;44.10;22.30;;;5.40;99.90;;;;;;5112988;28;20195;-67
2022/11/29 00:26:54;;;;;;;51.97;24.67;;;5.30;99.90;;;;;;5112701;28;20231;-68
2022/11/29 00:29:23;;;;;;;43.23;24.10;;;5.30;99.90;;;;;;5093364;28;20559;-69
2022/11/29 00:31:51;;;;;;;50.23;24.17;;;5.30;99.90;;;;;;5113023;28;20569;-71
2022/11/29 00:34:21;;;;;;;41.83;22.47;;;5.40;99.90;;;;;;5112772;28;20192;-69
2022/11/29 00:36:49;;;;;;;48.07;23.77;;;5.30;99.90;;;;;;5113162;28;20205;-69
2022/11/29 00:39:18;;;;;;;47.07;23.70;;;5.30;99.90;;;;;;5112645;28;20234;-68
2022/11/29 00:41:46;;;;;;;42.73;24.40;;;5.30;99.90;;;;;;5112564;28;20736;-70
2022/11/29 00:44:14;;;;;;;44.77;22.80;;;5.30;99.90;;;;;;5112537;28;20703;-67
2022/11/29 00:46:47;;;;;;;52.97;25.73;;;5.20;99.90;;;;;;5112448;28;20236;-71
2022/11/29 00:49:16;;;;;;;49.70;25.87;;;5.30;99.90;;;;;;5112564;28;20199;-72
2022/11/29 00:51:46;;;;;;;50.97;23.13;;;5.30;99.90;;;;;;5112219;28;20202;-71
2022/11/29 00:54:14;;;;;;;47.23;24.17;;;5.30;99.90;;;;;;5112634;28;20199;-69
2022/11/29 00:56:43;;;;;;;46.73;24.33;;;5.30;99.90;;;;;;5112356;28;20206;-71
2022/11/29 00:59:11;;;;;;;47.67;25.20;;;5.30;99.90;;;;;;5112748;28;20252;-67
2022/11/29 01:01:40;;;;;;;48.97;24.53;;;5.30;99.90;;;;;;5112334;28;20248;-70
2022/11/29 01:04:08;;;;;;;47.03;23.47;;;5.30;99.90;;;;;;5112144;28;20691;-66
2022/11/29 01:06:36;;;;;;;51.33;25.37;;;5.30;99.90;;;;;;5111800;28;20247;-68
2022/11/29 01:09:06;;;;;;;49.50;22.80;;;5.30;99.90;;;;;;5112261;28;20280;-67
2022/11/29 01:11:35;;;;;;;45.30;23.43;;;5.30;99.90;;;;;;5112277;28;20206;-67
2022/11/29 01:14:04;;;;;;;46.00;24.23;;;5.30;99.90;;;;;;5112073;28;20194;-67
2022/11/29 01:16:32;;;;;;;51.77;24.27;;;5.30;99.90;;;;;;5112220;28;20672;-67
2022/11/29 01:19:01;;;;;;;47.47;23.97;;;5.30;99.90;;;;;;5112145;28;20314;-66
2022/11/29 01:21:30;;;;;;;44.23;22.53;;;5.20;99.90;;;;;;5112071;28;20205;-68
2022/11/29 01:24:00;;;;;;;50.10;24.77;;;5.20;99.90;;;;;;5112154;28;20201;-68
2022/11/29 01:26:31;;;;;;;46.13;24.10;;;5.30;99.90;;;;;;5093717;28;20232;-68
2022/11/29 01:29:00;;;;;;;45.57;24.23;;;5.30;99.90;;;;;;5112001;28;20703;-67
2022/11/29 01:31:30;;;;;;;50.93;24.07;;;5.20;99.90;;;;;;5111964;28;20206;-66
2022/11/29 01:34:01;;;;;;;44.37;24.17;;;5.20;99.90;;;;;;5111982;28;20197;-67
2022/11/29 01:36:30;;;;;;;47.97;23.73;;;5.20;99.90;;;;;;5111939;28;20634;-68
2022/11/29 01:38:59;;;;;;;43.13;23.10;;;5.20;99.90;;;;;;5112053;28;20218;-67
2022/11/29 01:41:31;;;;;;;49.43;24.00;;;5.20;99.90;;;;;;5116156;28;20206;-66
2022/11/29 01:44:02;;;;;;;48.20;23.17;;;5.10;99.90;;;;;;5116152;28;20249;-67
2022/11/29 01:46:33;;;;;;;42.47;23.40;;;5.20;99.90;;;;;;5115885;28;20707;-66
2022/11/29 01:49:06;;;;;;;42.40;23.07;;;5.10;99.90;;;;;;5116073;28;20205;-68
2022/11/29 01:51:35;;;;;;;46.27;23.57;;;5.10;99.90;;;;;;5115923;28;20218;-68
2022/11/29 01:54:04;;;;;;;47.03;22.53;;;5.10;99.90;;;;;;5115993;28;20256;-67
2022/11/29 01:56:35;;;;;;;44.60;22.53;;;5.10;99.90;;;;;;5116447;28;20198;-66
2022/11/29 01:59:06;;;;;;;45.07;22.23;;;5.10;99.90;;;;;;5115751;28;20195;-67
2022/11/29 02:01:35;;;;;;;44.60;23.17;;;5.10;99.90;;;;;;5115779;28;20191;-66
2022/11/29 02:04:05;;;;;;;42.67;22.60;;;5.10;99.90;;;;;;5115778;28;20570;-67
2022/11/29 02:06:35;;;;;;;41.57;21.93;;;5.10;99.90;;;;;;5115368;28;20238;-69
2022/11/29 02:09:04;;;;;;;41.00;22.20;;;5.10;99.90;;;;;;5115759;28;20210;-66
2022/11/29 02:12:08;;;;;;;36.47;20.00;;;5.20;99.90;;;;;;5115659;28;20202;-67
2022/11/29 02:14:55;;;;;;;37.60;20.10;;;5.20;99.90;;;;;;5115453;28;20619;-69
2022/11/29 02:17:35;;;;;;;42.27;20.57;;;5.10;99.90;;;;;;5115459;28;20199;-67
2022/11/29 02:20:39;;;;;;;41.87;20.30;;;5.10;99.90;;;;;;5097020;28;20213;-66
2022/11/29 02:23:32;;;;;;;41.50;20.33;;;5.10;99.90;;;;;;5052440;28;20211;-70
2022/11/29 02:26:14;;;;;;;38.03;19.57;;;5.00;99.90;;;;;;5052330;28;20198;-67
2022/11/29 02:29:02;;;;;;;35.77;19.37;;;5.00;99.90;;;;;;5052336;28;20655;-69
2022/11/29 02:32:14;;;;;;;40.87;20.17;;;5.10;99.90;;;;;;5052297;28;20699;-69
2022/11/29 02:35:03;;;;;;;37.63;17.77;;;5.00;99.90;;;;;;5052273;28;20263;-67
2022/11/29 02:37:49;;;;;;;39.27;19.47;;;5.00;99.90;;;;;;5052191;28;20710;-69
2022/11/29 02:40:32;;;;;;;31.30;15.97;;;5.00;99.90;;;;;;5052075;28;20204;-73
2022/11/29 02:43:32;;;;;;;35.37;18.33;;;5.00;99.90;;;;;;5052039;28;20253;-69
2022/11/29 02:46:12;;;;;;;32.90;17.40;;;5.10;99.90;;;;;;4973033;28;20573;-67
2022/11/29 02:48:53;;;;;;;31.40;18.23;;;5.10;99.90;;;;;;4973203;28;20227;-68
2022/11/29 02:51:27;;;;;;;37.10;18.73;;;5.00;99.90;;;;;;4972273;28;20202;-68
2022/11/29 02:54:02;;;;;;;36.00;18.60;;;5.00;99.90;;;;;;4973226;28;20700;-72
2022/11/29 02:56:37;;;;;;;30.30;16.50;;;5.00;99.90;;;;;;4972945;28;20221;-67
2022/11/29 02:59:12;;;;;;;35.60;17.70;;;5.00;99.90;;;;;;4975779;28;20720;-70
2022/11/29 03:01:48;;;;;;;33.63;18.17;;;5.00;99.90;;;;;;5031910;28;20210;-70
2022/11/29 03:04:28;;;;;;;32.67;17.67;;;5.00;99.90;;;;;;5031792;28;20211;-66
2022/11/29 03:07:03;;;;;;;34.27;18.43;;;5.00;99.90;;;;;;5031202;28;20247;-68
2022/11/29 03:09:39;;;;;;;30.70;17.90;;;5.10;99.90;;;;;;5031597;28;20227;-68
2022/11/29 03:12:18;;;;;;;34.27;18.23;;;5.00;99.90;;;;;;5031540;28;20209;-68
2022/11/29 03:14:57;;;;;;;29.17;16.90;;;5.10;99.90;;;;;;5031527;28;20653;-67
2022/11/29 03:17:36;;;;;;;33.13;18.43;;;5.10;99.90;;;;;;5031472;28;20298;-70
2022/11/29 03:20:23;;;;;;;38.07;18.50;;;5.20;99.90;;;;;;5031422;28;20203;-68
2022/11/29 03:23:14;;;;;;;31.33;19.27;;;5.10;99.90;;;;;;5070642;28;20206;-68
2022/11/29 03:25:46;;;;;;;33.33;17.73;;;5.10;99.90;;;;;;5093712;28;20656;-68
2022/11/29 03:28:19;;;;;;;35.83;19.63;;;5.10;99.90;;;;;;5093480;28;20596;-66
2022/11/29 03:30:55;;;;;;;37.50;20.33;;;5.10;99.90;;;;;;5092443;28;20200;-70
2022/11/29 03:33:38;;;;;;;37.97;20.73;;;5.10;99.90;;;;;;5093523;28;20540;-67
2022/11/29 03:36:14;;;;;;;43.10;20.67;;;5.00;99.90;;;;;;5093507;28;20193;-69
2022/11/29 03:38:45;;;;;;;38.30;19.43;;;5.00;99.90;;;;;;5093602;28;20246;-68
2022/11/29 03:41:22;;;;;;;37.20;20.53;;;5.00;99.90;;;;;;5093451;28;20203;-68
2022/11/29 03:43:57;;;;;;;34.00;18.67;;;5.00;99.90;;;;;;5093478;28;20197;-69
2022/11/29 03:46:33;;;;;;;36.13;19.53;;;5.00;99.90;;;;;;5093531;28;20271;-68
2022/11/29 03:49:04;;;;;;;34.97;17.23;;;5.10;99.90;;;;;;5093382;28;20686;-69
2022/11/29 03:51:49;;;;;;;37.87;19.30;;;5.10;99.90;;;;;;5093197;28;20278;-69
2022/11/29 03:54:22;;;;;;;37.87;19.37;;;5.00;99.90;;;;;;5093154;28;20294;-67
2022/11/29 03:56:51;;;;;;;33.47;18.37;;;5.00;99.90;;;;;;5093186;28;20201;-67
2022/11/29 03:59:31;;;;;;;28.17;17.13;;;5.00;99.90;;;;;;5093361;28;20563;-67
2022/11/29 04:02:29;;;;;;;33.80;18.57;;;5.10;99.90;;;;;;5093026;28;20199;-69
2022/11/29 04:05:22;;;;;;;30.40;16.17;;;5.10;99.90;;;;;;5090408;28;20214;-70
2022/11/29 04:08:37;;;;;;;34.43;18.00;;;5.10;99.90;;;;;;5092869;28;20242;-68
2022/11/29 04:11:25;;;;;;;28.93;16.57;;;5.10;99.90;;;;;;5010874;28;20201;-66
2022/11/29 04:14:27;;;;;;;32.23;16.93;;;5.10;99.90;;;;;;5010627;28;20195;-67
2022/11/29 04:17:35;;;;;;;34.13;17.77;;;5.10;99.90;;;;;;5010618;28;20205;-70
2022/11/29 04:20:33;;;;;;;30.37;16.37;;;5.00;99.90;;;;;;5010586;28;20201;-67
2022/11/29 04:23:45;;;;;;;28.93;16.90;;;5.10;99.90;;;;;;5010647;28;20201;-66
2022/11/29 04:26:38;;;;;;;28.27;16.53;;;5.10;99.90;;;;;;5010475;28;21161;-68
2022/11/29 04:29:24;;;;;;;27.97;16.00;;;5.10;99.90;;;;;;5010386;28;20237;-69
2022/11/29 04:32:12;;;;;;;26.37;15.17;;;5.10;99.90;;;;;;5010569;28;20213;-68
2022/11/29 04:35:00;;;;;;;28.27;16.30;;;5.00;99.90;;;;;;5010401;28;20210;-70
2022/11/29 04:38:00;;;;;;;27.73;14.97;;;5.00;99.90;;;;;;5010066;28;20226;-71
2022/11/29 04:40:44;;;;;;;25.77;15.93;;;5.00;99.90;;;;;;5010293;28;20232;-66
2022/11/29 04:43:41;;;;;;;30.93;17.03;;;4.90;99.90;;;;;;5010314;28;20268;-71
2022/11/29 04:46:33;;;;;;;20.53;12.70;;;4.80;99.90;;;;;;5088770;28;20250;-69
2022/11/29 04:49:21;;;;;;;25.50;14.67;;;4.70;99.90;;;;;;5089798;28;20234;-66
2022/11/29 04:52:11;;;;;;;19.37;12.43;;;4.60;99.90;;;;;;5092288;28;20196;-67
2022/11/29 04:54:47;;;;;;;21.57;12.57;;;4.60;99.90;;;;;;5092182;28;20201;-66
2022/11/29 04:57:28;;;;;;;22.80;12.83;;;4.50;99.90;;;;;;5092244;28;20731;-67
2022/11/29 05:00:06;;;;;;;22.13;11.93;;;4.50;99.90;;;;;;5092061;28;20228;-67
2022/11/29 05:02:41;;;;;;;21.57;12.87;;;4.50;99.90;;;;;;5092076;28;20222;-66
2022/11/29 05:05:21;;;;;;;24.97;13.27;;;4.40;99.90;;;;;;5091737;28;20732;-68
2022/11/29 05:07:57;;;;;;;23.83;12.87;;;4.40;99.90;;;;;;5091907;28;20219;-67
2022/11/29 05:10:34;;;;;;;19.10;10.97;;;4.50;99.90;;;;;;5092125;28;20275;-71
2022/11/29 05:13:13;;;;;;;22.77;12.97;;;4.50;99.90;;;;;;5091752;28;20287;-66
2022/11/29 05:16:00;;;;;;;24.27;13.90;;;4.60;99.90;;;;;;5090221;28;20642;-68
2022/11/29 05:18:54;;;;;;;23.37;14.17;;;4.60;99.90;;;;;;5091798;28;20214;-67
2022/11/29 05:21:36;;;;;;;19.37;11.77;;;4.60;99.90;;;;;;5091766;28;20714;-66
2022/11/29 05:24:17;;;;;;;29.23;14.60;;;4.50;99.40;;;;;;5091795;28;20628;-69
2022/11/29 05:26:54;;;;;;;22.33;13.57;;;4.50;99.90;;;;;;5091723;28;20297;-71
2022/11/29 05:29:30;;;;;;;21.07;12.97;;;4.50;99.90;;;;;;5092150;28;20259;-69
2022/11/29 05:32:14;;;;;;;31.43;19.10;;;4.50;99.90;;;;;;5091828;28;20223;-69
2022/11/29 05:35:08;;;;;;;26.90;16.43;;;4.50;99.90;;;;;;5091595;28;20694;-67
2022/11/29 05:37:43;;;;;;;22.00;12.63;;;4.50;99.90;;;;;;5091585;28;20204;-72
2022/11/29 05:40:34;;;;;;;45.70;23.63;;;4.50;99.40;;;;;;5091631;28;20280;-67
2022/11/29 05:43:13;;;;;;;42.17;22.90;;;4.50;99.90;;;;;;5091622;28;20273;-67
2022/11/29 05:45:48;;;;;;;24.80;16.03;;;4.60;99.90;;;;;;5091400;28;20655;-66
2022/11/29 05:48:24;;;;;;;26.47;14.17;;;4.70;99.50;;;;;;5091452;28;20222;-68
2022/11/29 05:51:06;;;;;;;22.47;13.67;;;4.60;97.70;;;;;;5091585;28;20200;-66
2022/11/29 05:53:42;;;;;;;21.83;14.27;;;4.60;98.90;;;;;;5091438;28;20205;-66
2022/11/29 05:56:18;;;;;;;24.50;15.10;;;4.60;98.30;;;;;;5091330;28;20207;-67
2022/11/29 05:58:51;;;;;;;27.20;15.00;;;4.60;99.10;;;;;;5091406;28;20196;-67
2022/11/29 06:01:24;;;;;;;23.50;14.67;;;4.60;98.40;;;;;;5091394;28;20202;-69
2022/11/29 06:04:00;;;;;;;22.03;15.23;;;4.60;98.00;;;;;;5091445;28;20243;-68
2022/11/29 06:06:38;;;;;;;19.03;13.63;;;4.60;98.80;;;;;;5101035;28;20802;-67
2022/11/29 06:09:14;;;;;;;21.83;13.63;;;4.70;98.30;;;;;;5111330;28;20229;-67
2022/11/29 06:11:45;;;;;;;21.27;12.87;;;4.60;96.40;;;;;;5111737;28;20240;-67
2022/11/29 06:14:32;;;;;;;20.83;12.57;;;4.50;95.60;;;;;;5111587;28;20562;-67
2022/11/29 06:17:28;;;;;;;21.40;13.90;;;4.20;95.60;;;;;;5111548;28;20234;-67
2022/11/29 06:20:28;;;;;;;20.33;13.10;;;4.10;96.40;;;;;;5111423;28;20209;-67
2022/11/29 06:23:35;;;;;;;21.47;14.03;;;4.00;97.10;;;;;;5111419;28;20221;-69
2022/11/29 06:26:17;;;;;;;23.00;14.03;;;4.00;97.90;;;;;;5009016;28;20215;-68
2022/11/29 06:28:58;;;;;;;23.63;14.27;;;4.00;98.40;;;;;;5012623;28;20232;-68
2022/11/29 06:31:32;;;;;;;23.33;15.13;;;4.10;97.90;;;;;;5012565;28;20219;-69
2022/11/29 06:34:10;;;;;;;21.30;14.27;;;4.10;97.70;;;;;;5012384;28;20200;-71
2022/11/29 06:36:45;;;;;;;24.13;16.00;;;4.10;97.50;;;;;;5012115;28;20218;-68
2022/11/29 06:39:14;;;;;;;24.50;15.13;;;4.10;98.00;;;;;;4995899;28;20682;-66
2022/11/29 06:41:42;;;;;;;26.13;16.73;;;4.00;97.80;;;;;;5012366;28;20212;-68
2022/11/29 06:44:12;;;;;;;24.00;15.03;;;4.10;98.30;;;;;;5012266;28;20793;-69
2022/11/29 06:46:46;;;;;;;25.87;16.43;;;4.20;98.50;;;;;;5012266;28;20571;-67
2022/11/29 06:49:22;;;;;;;22.30;14.70;;;4.30;98.50;;;;;;5011962;28;20237;-70
2022/11/29 06:52:02;;;;;;;24.30;15.87;;;4.30;97.90;;;;;;5012070;28;20205;-66
2022/11/29 06:54:41;;;;;;;26.70;16.37;;;4.30;98.20;;;;;;5011932;28;20210;-66
2022/11/29 06:57:15;;;;;;;25.67;16.93;;;4.30;98.00;;;;;;4953292;29;20224;-70
2022/11/29 06:59:57;;;;;;;26.33;16.63;;;4.30;98.30;;;;;;4953575;29;20211;-69
2022/11/29 07:02:41;;;;;;;25.70;16.43;;;4.40;99.00;;;;;;4979427;28;20211;-66
2022/11/29 07:05:22;;;;;;;24.60;16.53;;;4.40;98.20;;;;;;5031410;28;20203;-67
2022/11/29 07:07:54;;;;;;;29.57;16.83;;;4.40;98.70;;;;;;5031335;28;20665;-67
2022/11/29 07:10:24;;;;;;;37.47;21.53;;;4.40;98.10;;;;;;5031673;28;20232;-67
2022/11/29 07:12:53;;;;;;;31.00;19.47;;;4.50;98.50;;;;;;5031621;28;20710;-67
2022/11/29 07:15:23;;;;;;;26.53;17.47;;;4.50;98.80;;;;;;5072222;28;20211;-67
2022/11/29 07:18:05;;;;;;;31.37;18.73;;;4.50;97.60;;;;;;5114186;28;20713;-67
2022/11/29 07:20:43;;;;;;;26.43;16.20;;;4.50;98.70;;;;;;5114051;28;20197;-70
2022/11/29 07:23:25;;;;;;;32.13;20.23;;;4.50;98.10;;;;;;5114084;28;20300;-69
2022/11/29 07:26:03;;;;;;;30.33;20.87;;;4.50;99.30;;;;;;5114104;28;20302;-68
2022/11/29 07:28:42;;;;;;;30.07;20.67;;;4.60;98.80;;;;;;5113901;28;20206;-68
2022/11/29 07:31:18;;;;;;;32.53;21.17;;;4.60;98.80;;;;;;5113791;28;20202;-70
2022/11/29 07:33:57;;;;;;;29.33;20.10;;;4.70;98.60;;;;;;5113998;28;20209;-66
2022/11/29 07:36:40;;;;;;;34.40;21.93;;;4.70;98.40;;;;;;5113860;28;20289;-66
2022/11/29 07:39:24;;;;;;;31.10;18.80;;;4.70;98.50;;;;;;5113266;28;20207;-67
2022/11/29 07:41:58;;;;;;;30.30;19.50;;;4.60;97.90;;;;;;5100445;28;20231;-66
2022/11/29 07:44:35;;;;;;;31.30;20.23;;;4.60;98.50;;;;;;5084598;28;20198;-66
2022/11/29 07:47:03;;;;;;;34.70;20.57;;;4.60;99.40;;;;;;5085708;28;20206;-68
2022/11/29 07:49:32;;;;;;;34.17;21.73;;;4.60;98.80;;;;;;5075680;28;20340;-69
2022/11/29 07:52:02;;;;;;;35.47;22.07;;;4.70;99.30;;;;;;5073476;28;20656;-71
2022/11/29 07:54:30;;;;;;;171.67;91.03;;;4.70;99.20;;;;;;5073281;28;20199;-67
2022/11/29 07:56:59;;;;;;;98.53;53.70;;;4.80;99.90;;;;;;5073406;28;20200;-70
2022/11/29 07:59:27;;;;;;;87.97;50.00;;;5.00;99.90;;;;;;5084453;28;20202;-68
2022/11/29 08:01:55;;;;;;;46.23;28.70;;;5.00;99.90;;;;;;5092929;28;20668;-69
2022/11/29 08:04:24;;;;;;;70.90;38.20;;;5.00;99.90;;;;;;5093009;28;20190;-68
2022/11/29 08:06:52;;;;;;;62.47;34.40;;;5.00;99.90;;;;;;5106574;28;20261;-69
2022/11/29 08:09:22;;;;;;;72.20;38.57;;;4.90;99.90;;;;;;5113666;28;20227;-71
2022/11/29 08:11:50;;;;;;;59.60;34.00;;;5.00;99.90;;;;;;5114001;28;20215;-67
2022/11/29 08:14:18;;;;;;;49.73;27.87;;;5.10;99.90;;;;;;5113220;28;20204;-68
2022/11/29 08:16:47;;;;;;;47.70;25.60;;;5.10;99.90;;;;;;5113460;28;20691;-67
2022/11/29 08:19:15;;;;;;;54.47;30.37;;;5.10;99.90;;;;;;5113181;28;20294;-67
2022/11/29 08:21:45;;;;;;;47.50;27.17;;;5.10;99.90;;;;;;5113520;28;20203;-68
2022/11/29 08:24:14;;;;;;;44.03;25.00;;;5.20;99.90;;;;;;5113389;28;20280;-66
2022/11/29 08:26:43;;;;;;;39.63;23.53;;;5.20;99.90;;;;;;5113527;28;20277;-71
2022/11/29 08:29:12;;;;;;;49.13;25.20;;;5.10;99.90;;;;;;5112145;28;20220;-68
2022/11/29 08:31:40;;;;;;;41.90;24.13;;;5.10;99.90;;;;;;5113253;28;20200;-67
2022/11/29 08:34:09;;;;;;;39.03;22.70;;;5.10;99.80;;;;;;5113210;28;20281;-67
2022/11/29 08:36:38;;;;;;;35.77;22.43;;;5.00;99.30;;;;;;5113010;28;20540;-69
2022/11/29 08:39:06;;;;;;;38.77;22.33;;;4.90;99.90;;;;;;5112785;28;20192;-67
2022/11/29 08:41:37;;;;;;;42.33;23.80;;;4.90;99.90;;;;;;5112945;28;20204;-68
2022/11/29 08:44:07;;;;;;;39.57;24.37;;;5.10;99.90;;;;;;5112575;28;20197;-68
2022/11/29 08:49:21;;;;;;;36.80;23.60;;;5.20;99.90;;;;;;5112161;28;20220;-66
2022/11/29 08:53:39;;;;;;;32.23;20.30;;;5.20;99.90;;;;;;5112913;28;20228;-68
2022/11/29 08:54:39;;;;;;;35.43;20.70;;;5.20;99.00;;;;;;5112912;28;20224;-67
2022/11/29 08:57:08;;;;;;;35.33;20.47;;;5.10;98.50;;;;;;5113029;28;20203;-68
2022/11/29 08:59:58;;;;;;;35.23;20.13;;;5.10;98.60;;;;;;5111807;28;20634;-67
2022/11/29 09:02:26;;;;;;;32.83;19.10;;;5.00;99.30;;;;;;5112794;28;20693;-66
2022/11/29 09:04:54;;;;;;;39.17;20.90;;;5.00;99.60;;;;;;5112698;28;20223;-67
2022/11/29 09:07:23;;;;;;;37.17;22.17;;;5.00;98.70;;;;;;5112242;28;20226;-68
2022/11/29 09:09:52;;;;;;;49.10;26.33;;;4.90;98.60;;;;;;5112415;28;20234;-67
2022/11/29 09:12:21;;;;;;;35.93;22.03;;;4.80;98.70;;;;;;5112134;28;20201;-67
2022/11/29 09:14:49;;;;;;;36.70;21.37;;;4.80;99.30;;;;;;5112532;28;20683;-68
2022/11/29 09:17:19;;;;;;;36.13;22.50;;;4.80;99.40;;;;;;5112486;28;20201;-66
2022/11/29 09:19:47;;;;;;;36.37;21.33;;;4.80;99.00;;;;;;5112381;28;20238;-67
2022/11/29 09:22:16;;;;;;;34.43;19.70;;;4.80;99.60;;;;;;5112204;28;20197;-67
2022/11/29 09:24:45;;;;;;;35.90;21.10;;;4.90;99.90;;;;;;5112797;28;20565;-68
2022/11/29 09:27:14;;;;;;;34.30;19.27;;;4.80;99.30;;;;;;5111942;28;20687;-68
2022/11/29 09:29:42;;;;;;;34.70;20.33;;;4.80;98.70;;;;;;5112362;28;20240;-67
2022/11/29 09:32:10;;;;;;;43.07;22.67;;;4.80;99.50;;;;;;5112567;28;20200;-67
2022/11/29 09:34:40;;;;;;;33.30;20.17;;;4.80;99.90;;;;;;5111920;28;20607;-70
2022/11/29 09:37:09;;;;;;;41.00;23.93;;;4.30;99.90;;;;;;5111950;28;20281;-72
2022/11/29 09:39:39;;;;;;;46.47;24.60;;;4.20;99.90;;;;;;5111884;28;20247;-68
2022/11/29 09:42:18;;;;;;;38.67;22.73;;;4.10;99.90;;;;;;5111925;28;20206;-70
2022/11/29 09:44:58;;;;;;;39.63;21.87;;;3.90;99.90;;;;;;5111690;28;20551;-67
2022/11/29 09:47:44;;;;;;;41.27;22.77;;;3.80;99.90;;;;;;5111811;28;20198;-71
2022/11/29 09:50:25;;;;;;;43.53;24.83;;;3.90;99.90;;;;;;5111644;28;20225;-72
2022/11/29 09:53:05;;;;;;;47.27;26.73;;;4.00;99.90;;;;;;5111564;28;20205;-70
2022/11/29 09:55:45;;;;;;;45.97;25.77;;;3.80;99.90;;;;;;5111956;28;20261;-67
2022/11/29 09:58:19;;;;;;;45.47;26.20;;;3.80;99.90;;;;;;5111783;28;20246;-67
2022/11/29 10:00:55;;;;;;;46.83;24.73;;;3.90;99.90;;;;;;5112903;28;20200;-72
2022/11/29 10:03:29;;;;;;;36.93;22.40;;;3.70;99.90;;;;;;5115787;28;20207;-68
2022/11/29 10:06:07;;;;;;;43.10;22.47;;;3.60;99.90;;;;;;5115341;28;20272;-70
2022/11/29 10:08:41;;;;;;;47.37;25.73;;;3.40;99.90;;;;;;5115135;28;20612;-68
2022/11/29 10:11:18;;;;;;;40.90;21.23;;;3.60;99.90;;;;;;5115465;28;20715;-69
2022/11/29 10:13:51;;;;;;;52.77;28.20;;;3.40;99.90;;;;;;5115515;28;20587;-68
2022/11/29 10:16:28;;;;;;;46.47;25.50;;;3.50;99.90;;;;;;5115368;28;20299;-69
2022/11/29 10:19:03;;;;;;;64.50;36.87;;;3.30;99.90;;;;;;5115414;28;20258;-67
2022/11/29 10:21:38;;;;;;;63.80;37.30;;;3.60;99.90;;;;;;5115323;28;20192;-67
2022/11/29 10:24:13;;;;;;;44.00;29.73;;;3.90;99.90;;;;;;5115150;28;20287;-73
2022/11/29 10:26:42;;;;;;;92.30;51.03;;;4.00;99.90;;;;;;5115208;28;20600;-73
2022/11/29 10:29:13;;;;;;;51.80;29.70;;;4.10;99.90;;;;;;5114897;28;20202;-67
2022/11/29 10:31:45;;;;;;;48.03;26.83;;;4.00;99.90;;;;;;5114878;28;20226;-68
2022/11/29 10:34:16;;;;;;;45.87;28.57;;;3.90;99.90;;;;;;5114746;28;20205;-66
2022/11/29 10:36:47;;;;;;;49.23;28.17;;;4.10;99.90;;;;;;5114903;28;20189;-70
2022/11/29 10:39:22;;;;;;;47.00;30.43;;;3.90;99.90;;;;;;5114722;28;20201;-73
2022/11/29 10:41:56;;;;;;;42.80;26.70;;;3.80;99.90;;;;;;5114747;28;20219;-68
2022/11/29 10:44:25;;;;;;;65.13;33.13;;;3.90;99.90;;;;;;5115042;28;20194;-67
2022/11/29 10:46:56;;;;;;;67.03;37.80;;;3.90;99.90;;;;;;5114821;28;20215;-70
2022/11/29 10:49:29;;;;;;;51.37;30.67;;;4.10;99.90;;;;;;5114889;28;20205;-68
2022/11/29 10:51:59;;;;;;;80.93;39.57;;;4.10;99.90;;;;;;5114735;28;20316;-66
2022/11/29 10:54:38;;;;;;;114.53;61.60;;;4.10;99.90;;;;;;5114642;28;20193;-70
2022/11/29 10:57:14;;;;;;;57.73;35.37;;;4.00;99.90;;;;;;5114591;28;20675;-69
2022/11/29 10:59:57;;;;;;;46.30;26.03;;;4.00;99.90;;;;;;5114558;28;20280;-71
2022/11/29 11:02:26;;;;;;;68.43;34.20;;;4.00;99.90;;;;;;5114329;28;20274;-65
2022/11/29 11:04:55;;;;;;;118.37;53.23;;;3.90;99.90;;;;;;5114368;28;20197;-71
2022/11/29 11:07:28;;;;;;;46.87;27.00;;;4.10;99.90;;;;;;5114071;28;20217;-68
2022/11/29 11:09:58;;;;;;;43.87;27.60;;;4.00;99.90;;;;;;5114426;28;20202;-68
2022/11/29 11:12:28;;;;;;;97.83;43.90;;;3.80;99.90;;;;;;5113445;28;20624;-71
2022/11/29 11:15:27;;;;;;;116.30;48.87;;;4.00;99.90;;;;;;5114294;28;20202;-68
2022/11/29 11:17:59;;;;;;;47.53;27.07;;;4.10;99.90;;;;;;5114087;28;20195;-65
2022/11/29 11:20:30;;;;;;;73.30;32.10;;;4.00;99.90;;;;;;5095812;28;20208;-66
2022/11/29 11:23:03;;;;;;;142.47;47.63;;;4.00;99.90;;;;;;5113983;28;20670;-72
2022/11/29 11:25:34;;;;;;;120.97;44.73;;;3.90;99.90;;;;;;5114046;28;20194;-67
2022/11/29 11:28:16;;;;;;;70.77;33.63;;;4.00;99.90;;;;;;5113822;28;20616;-72
2022/11/29 11:30:51;;;;;;;111.70;45.00;;;4.10;99.90;;;;;;5113804;28;20221;-69
2022/11/29 11:33:21;;;;;;;87.27;39.10;;;4.20;99.90;;;;;;5113782;28;20269;-69
2022/11/29 11:36:02;;;;;;;210.80;62.80;;;4.20;99.90;;;;;;5113814;28;20219;-72
2022/11/29 11:38:32;;;;;;;247.53;67.87;;;4.30;99.90;;;;;;5113679;28;20296;-68
2022/11/29 11:41:04;;;;;;;165.03;58.70;;;4.20;99.90;;;;;;5113938;28;20211;-67
2022/11/29 11:43:34;;;;;;;171.27;67.30;;;4.30;99.90;;;;;;5113809;28;20229;-72
2022/11/29 11:46:02;;;;;;;86.00;40.33;;;4.10;99.90;;;;;;5113784;28;20562;-67
2022/11/29 11:48:33;;;;;;;56.77;31.17;;;4.10;99.90;;;;;;5113404;28;20241;-69
2022/11/29 11:51:02;;;;;;;55.83;31.20;;;3.90;99.90;;;;;;5094529;28;20271;-67
2022/11/29 11:53:35;;;;;;;44.70;25.93;;;3.80;99.90;;;;;;5113481;28;20193;-67
2022/11/29 11:56:06;;;;;;;68.63;33.13;;;3.80;99.90;;;;;;5113584;28;20202;-67
2022/11/29 11:58:37;;;;;;;91.20;40.27;;;3.90;99.90;;;;;;5113330;28;20212;-67
2022/11/29 12:01:16;;;;;;;63.07;32.40;;;4.10;99.90;;;;;;5113245;28;20206;-67
2022/11/29 12:03:52;;;;;;;61.30;34.00;;;3.90;99.90;;;;;;5113204;28;20204;-66
2022/11/29 12:06:44;;;;;;;64.23;32.57;;;4.00;99.90;;;;;;5112966;28;20234;-68
2022/11/29 12:09:24;;;;;;;49.87;29.07;;;4.10;99.90;;;;;;5113022;28;20201;-70
2022/11/29 12:12:01;;;;;;;45.77;25.20;;;3.90;99.90;;;;;;5112914;28;20257;-67
2022/11/29 12:14:39;;;;;;;53.40;30.40;;;3.80;99.90;;;;;;5113119;28;20297;-65
2022/11/29 12:17:15;;;;;;;49.93;27.77;;;3.90;99.90;;;;;;5112903;28;20214;-72
2022/11/29 12:19:53;;;;;;;47.57;29.00;;;3.70;99.90;;;;;;5112751;28;20599;-67
2022/11/29 12:22:27;;;;;;;48.60;27.90;;;3.90;99.90;;;;;;5112804;28;20682;-66
2022/11/29 12:25:02;;;;;;;48.87;28.47;;;4.00;99.90;;;;;;5111764;28;20224;-67
2022/11/29 12:27:31;;;;;;;93.10;44.40;;;3.90;99.90;;;;;;5113003;28;20201;-66
2022/11/29 12:29:59;;;;;;;60.73;32.27;;;4.10;99.90;;;;;;5112818;28;20200;-66
2022/11/29 12:32:50;;;;;;;70.63;33.87;;;4.10;99.90;;;;;;5112762;28;20317;-66
2022/11/29 12:35:36;;;;;;;142.20;51.43;;;4.20;99.90;;;;;;5112585;28;20219;-66
2022/11/29 12:38:13;;;;;;;153.93;55.03;;;4.20;99.90;;;;;;5112627;28;20212;-66
2022/11/29 12:40:48;;;;;;;107.37;45.53;;;4.10;99.90;;;;;;5112574;28;20221;-65
2022/11/29 12:43:28;;;;;;;176.50;59.80;;;4.20;99.90;;;;;;5112446;28;20584;-66
2022/11/29 12:46:06;;;;;;;55.13;31.13;;;4.10;99.90;;;;;;5112499;28;20652;-66
2022/11/29 12:48:43;;;;;;;130.13;45.13;;;3.90;99.90;;;;;;5112431;28;20201;-65
2022/11/29 12:51:19;;;;;;;53.40;28.80;;;4.00;99.90;;;;;;5112226;28;20275;-66
2022/11/29 12:54:04;;;;;;;69.97;34.67;;;3.90;99.90;;;;;;5112314;28;20655;-66
2022/11/29 12:56:41;;;;;;;141.93;55.80;;;3.90;99.90;;;;;;5112369;28;20190;-68
2022/11/29 12:59:22;;;;;;;54.23;27.70;;;4.00;99.90;;;;;;5112476;28;20211;-66
2022/11/29 13:02:17;;;;;;;132.33;61.30;;;3.80;99.90;;;;;;5112139;28;20209;-67
2022/11/29 13:04:53;;;;;;;45.50;27.50;;;3.70;99.90;;;;;;5110345;28;20605;-67
2022/11/29 13:07:34;;;;;;;51.57;27.83;;;3.60;99.90;;;;;;5112433;28;20641;-67
2022/11/29 13:10:34;;;;;;;62.73;35.10;;;3.60;99.90;;;;;;5112276;28;20200;-66
2022/11/29 13:13:14;;;;;;;142.00;54.07;;;3.80;99.90;;;;;;5111884;28;20209;-67
2022/11/29 13:15:47;;;;;;;113.13;50.03;;;3.80;99.90;;;;;;5112109;28;20215;-67
2022/11/29 13:18:22;;;;;;;60.20;31.23;;;3.80;99.90;;;;;;5111756;28;20207;-66
2022/11/29 13:20:59;;;;;;;48.70;28.27;;;3.80;99.90;;;;;;5111944;28;20694;-67
2022/11/29 13:23:32;;;;;;;61.37;30.57;;;3.70;99.90;;;;;;5111849;28;20302;-67
2022/11/29 13:26:14;;;;;;;92.53;39.03;;;3.70;99.90;;;;;;5111740;28;20662;-67
2022/11/29 13:28:45;;;;;;;73.90;33.87;;;3.80;99.90;;;;;;5111775;28;20194;-66